createdAt,value
2022-09-25T00:00:14.782Z,80.75
2022-09-25T00:02:17.398Z,80.38
2022-09-25T00:04:20.148Z,80.71
2022-09-25T00:06:25.179Z,80.22
2022-09-25T00:08:27.860Z,80.41
2022-09-25T00:10:30.927Z,80.58
2022-09-25T06:47:03.079Z,86.83
2022-09-25T06:49:05.789Z,87.87
2022-09-25T06:51:09.431Z,87.61
2022-09-25T06:53:12.269Z,87.59
2022-09-25T06:55:14.880Z,88.05
2022-09-25T06:57:17.431Z,88.05
2022-09-25T06:59:19.939Z,88.13
2022-09-25T07:01:22.570Z,88.18
2022-09-25T07:03:44.158Z,86.97
2022-09-25T07:05:48.329Z,86.26
2022-09-25T07:07:50.972Z,86.52
2022-09-25T07:09:53.534Z,86.06
2022-09-25T07:11:56.138Z,85.52
2022-09-25T07:13:58.747Z,85.37
2022-09-25T07:16:03.013Z,86.08
2022-09-25T07:18:06.051Z,85.98
2022-09-25T07:20:14.026Z,85.90
2022-09-25T07:22:16.606Z,86.50
2022-09-25T07:24:19.244Z,84.24
2022-09-25T07:26:24.055Z,84.30
2022-09-25T07:28:26.615Z,83.90
2022-09-25T07:30:30.116Z,84.67
2022-09-25T07:32:32.902Z,85.10
2022-09-25T07:34:36.037Z,85.02
2022-09-25T07:36:42.536Z,85.34
2022-09-25T07:38:46.194Z,82.87
2022-09-25T07:40:50.140Z,83.51
2022-09-25T07:42:52.946Z,83.66
2022-09-25T07:44:55.537Z,84.39
2022-09-25T07:46:58.068Z,84.23
2022-09-25T07:49:00.916Z,84.96
2022-09-25T07:51:03.881Z,84.85
2022-09-25T07:53:07.769Z,83.93
2022-09-25T07:55:12.729Z,83.19
2022-09-25T07:57:15.324Z,84.36
2022-09-25T07:59:17.975Z,84.76
2022-09-25T08:01:20.657Z,84.96
2022-09-25T08:03:23.266Z,82.32
2022-09-25T08:05:26.338Z,83.08
2022-09-25T08:07:29.122Z,83.87
2022-09-25T08:09:33.037Z,83.53
2022-09-25T08:11:35.647Z,84.00
2022-09-25T08:13:39.336Z,83.84
2022-09-25T08:15:41.984Z,82.74
2022-09-25T08:17:44.854Z,83.85
2022-09-25T08:19:47.422Z,84.75
2022-09-25T08:21:50.479Z,85.54
2022-09-25T08:23:55.437Z,85.56
2022-09-25T08:25:59.651Z,85.83
2022-09-25T08:28:02.990Z,86.06
2022-09-25T08:30:07.043Z,86.15
2022-09-25T08:32:09.615Z,86.09
2022-09-25T08:34:38.927Z,86.21
2022-09-25T08:36:38.147Z,86.14
2022-09-25T08:38:40.790Z,85.63
2022-09-25T08:40:52.432Z,84.38
2022-09-25T08:42:58.441Z,84.90
2022-09-25T08:45:22.678Z,84.99
2022-09-25T08:47:45.779Z,85.70
2022-09-25T08:50:06.639Z,84.02
2022-09-25T08:52:14.591Z,84.66
2022-09-25T08:54:21.919Z,84.48
2022-09-25T08:56:25.637Z,84.50
2022-09-25T08:58:35.421Z,84.58
2022-09-25T09:00:38.769Z,84.52
2022-09-25T09:02:45.334Z,84.28
2022-09-25T09:04:51.702Z,81.64
2022-09-25T09:07:25.805Z,81.80
2022-09-25T09:09:29.692Z,82.55
2022-09-25T09:11:37.209Z,82.96
2022-09-25T09:13:47.163Z,82.59
2022-09-25T09:15:56.872Z,82.91
2022-09-25T09:18:02.310Z,82.78
2022-09-25T09:20:18.478Z,82.73
2022-09-25T09:22:27.568Z,82.45
2022-09-25T09:24:41.426Z,82.30
2022-09-25T09:26:57.508Z,82.68
2022-09-25T09:29:14.063Z,82.37
2022-09-25T09:31:26.514Z,80.68
2022-09-25T09:33:43.908Z,80.85
2022-09-25T09:35:57.345Z,80.57
2022-09-25T09:38:11.626Z,82.32
2022-09-25T09:40:26.723Z,82.76
2022-09-25T09:42:38.166Z,81.48
2022-09-25T09:44:59.345Z,80.06
2022-09-25T09:47:09.710Z,80.44
2022-09-25T09:49:18.257Z,79.86
2022-09-25T09:51:25.277Z,81.04
2022-09-25T09:53:35.103Z,81.50
2022-09-25T09:55:43.240Z,81.32
2022-09-25T09:57:48.592Z,81.02
2022-09-25T10:00:02.015Z,80.78
2022-09-25T10:02:20.651Z,79.90
2022-09-25T10:04:27.992Z,79.06
2022-09-25T10:06:34.290Z,78.89
2022-09-25T10:08:37.438Z,78.21
2022-09-25T10:10:42.906Z,78.38
2022-09-25T10:12:50.885Z,78.57
2022-09-25T10:14:55.495Z,78.20
2022-09-25T10:16:58.547Z,78.50
2022-09-25T10:19:06.458Z,78.27
2022-09-25T10:21:14.968Z,78.04
2022-09-25T10:23:31.158Z,78.21
2022-09-25T10:25:38.765Z,76.63
2022-09-25T10:27:46.026Z,75.81
2022-09-25T10:30:04.081Z,73.22
2022-09-25T10:32:07.315Z,74.78
2022-09-25T10:34:22.275Z,75.39
2022-09-25T10:36:32.828Z,75.04
2022-09-25T10:38:39.179Z,74.11
2022-09-25T10:40:43.084Z,74.09
2022-09-25T10:42:45.752Z,73.43
2022-09-25T10:44:54.152Z,73.59
2022-09-25T10:47:49.201Z,73.81
2022-09-25T10:50:09.330Z,70.56
2022-09-25T10:52:13.874Z,70.01
2022-09-25T10:54:17.542Z,70.53
2022-09-25T10:56:24.271Z,70.05
2022-09-25T10:58:33.391Z,69.60
2022-09-25T11:00:43.075Z,70.90
2022-09-25T11:02:48.844Z,71.54
2022-09-25T11:04:52.634Z,71.43
2022-09-25T11:06:58.347Z,71.31
2022-09-25T11:09:07.864Z,71.24
2022-09-25T11:11:14.140Z,71.37
2022-09-25T11:13:24.328Z,71.28
2022-09-25T11:15:28.701Z,70.79
2022-09-25T11:17:33.878Z,69.20
2022-09-25T11:19:39.229Z,69.25
2022-09-25T11:21:49.570Z,67.56
2022-09-25T11:24:08.833Z,68.40
2022-09-25T11:26:19.620Z,68.57
2022-09-25T11:28:31.961Z,68.51
2022-09-25T11:30:41.730Z,68.41
2022-09-25T11:32:52.644Z,68.82
2022-09-25T11:35:29.719Z,68.49
2022-09-25T11:37:39.655Z,68.76
2022-09-25T11:40:13.750Z,69.51
2022-09-25T11:42:25.729Z,69.37
2022-09-25T11:44:34.231Z,70.11
2022-09-25T11:46:50.276Z,70.03
2022-09-25T11:49:01.875Z,69.58
2022-09-25T11:51:20.787Z,69.30
2022-09-25T11:53:38.861Z,69.79
2022-09-25T11:56:04.364Z,70.05
2022-09-25T11:58:17.802Z,70.99
2022-09-25T12:00:24.535Z,71.35
2022-09-25T12:02:37.277Z,71.29
2022-09-25T12:05:15.633Z,71.56
2022-09-25T12:07:32.898Z,70.23
2022-09-25T12:09:47.083Z,70.06
2022-09-25T12:11:58.896Z,70.98
2022-09-25T12:14:04.975Z,70.90
2022-09-25T12:16:17.058Z,71.46
2022-09-25T12:18:33.319Z,71.59
2022-09-25T12:20:48.442Z,72.04
2022-09-25T12:23:02.531Z,73.71
2022-09-25T12:25:12.397Z,73.13
2022-09-25T12:27:22.307Z,73.58
2022-09-25T12:29:49.083Z,74.62
2022-09-25T12:32:00.604Z,75.33
2022-09-25T12:34:14.758Z,75.87
2022-09-25T12:36:22.481Z,74.09
2022-09-25T12:38:34.634Z,73.94
2022-09-25T12:40:41.537Z,74.27
2022-09-25T12:42:48.121Z,73.90
2022-09-25T12:44:57.225Z,73.40
2022-09-25T12:47:04.475Z,73.15
2022-09-25T12:49:13.566Z,71.98
2022-09-25T12:51:19.837Z,71.22
2022-09-25T12:53:30.881Z,71.26
2022-09-25T12:55:38.275Z,71.53
2022-09-25T12:57:47.636Z,71.57
2022-09-25T12:59:55.500Z,71.35
2022-09-25T13:02:04.844Z,70.60
2022-09-25T13:04:19.299Z,70.42
2022-09-25T13:06:29.446Z,67.60
2022-09-25T13:08:41.712Z,67.55
2022-09-25T13:10:50.144Z,66.72
2022-09-25T13:12:55.492Z,67.50
2022-09-25T13:15:02.287Z,68.18
2022-09-25T13:17:04.924Z,66.50
2022-09-25T13:19:13.143Z,63.50
2022-09-25T13:21:26.896Z,62.17
2022-09-25T13:23:34.751Z,60.62
2022-09-25T13:25:45.057Z,60.34
2022-09-25T13:27:48.503Z,60.90
2022-09-25T13:29:59.784Z,62.06
2022-09-25T13:32:08.998Z,63.53
2022-09-25T13:34:14.236Z,64.28
2022-09-25T13:36:33.042Z,64.94
2022-09-25T13:38:58.437Z,66.31
2022-09-25T13:41:02.996Z,67.74
2022-09-25T13:43:20.584Z,68.22
2022-09-25T13:45:33.509Z,67.31
2022-09-25T13:48:06.936Z,66.45
2022-09-25T13:50:26.550Z,64.44
2022-09-25T13:52:30.104Z,63.50
2022-09-25T13:54:34.354Z,62.93
2022-09-25T13:56:49.402Z,61.55
2022-09-25T13:59:27.921Z,60.67
2022-09-25T14:01:37.808Z,60.58
2022-09-25T14:03:44.113Z,58.25
2022-09-25T14:05:46.733Z,58.48
2022-09-25T14:07:54.778Z,57.58
2022-09-25T14:10:00.022Z,57.94
2022-09-25T14:12:12.598Z,59.05
2022-09-25T14:14:33.284Z,60.35
2022-09-25T14:16:53.346Z,60.46
2022-09-25T14:18:58.328Z,61.39
2022-09-25T14:21:01.855Z,62.00
2022-09-25T14:23:07.968Z,62.63
2022-09-25T14:25:32.836Z,63.07
2022-09-25T14:27:36.758Z,63.55
2022-09-25T14:29:42.216Z,64.35
2022-09-25T14:31:58.245Z,65.37
2022-09-25T14:34:37.783Z,65.24
2022-09-25T14:36:53.698Z,65.56
2022-09-25T14:39:09.572Z,65.16
2022-09-25T14:41:30.431Z,63.80
2022-09-25T14:43:54.469Z,63.18
2022-09-25T14:46:04.484Z,62.19
2022-09-25T14:48:15.546Z,62.01
2022-09-25T14:50:23.381Z,62.23
2022-09-25T14:52:28.467Z,62.50
2022-09-25T14:54:36.475Z,63.25
2022-09-25T14:56:39.428Z,63.59
2022-09-25T14:58:48.001Z,63.50
2022-09-25T15:00:53.719Z,63.13
2022-09-25T15:02:58.224Z,63.58
2022-09-25T15:05:16.891Z,64.14
2022-09-25T15:07:23.907Z,64.68
2022-09-25T15:09:31.044Z,65.31
2022-09-25T15:11:41.421Z,65.73
2022-09-25T15:13:46.541Z,65.90
2022-09-25T15:16:10.097Z,65.96
2022-09-25T15:18:15.708Z,66.65
2022-09-25T15:20:21.536Z,66.24
2022-09-25T15:22:26.354Z,65.76
2022-09-25T15:24:31.771Z,66.37
2022-09-25T15:26:39.308Z,66.43
2022-09-25T15:28:42.214Z,67.32
2022-09-25T15:47:54.853Z,69.31
2022-09-25T15:49:57.520Z,69.12
2022-09-25T15:52:03.941Z,69.31
2022-09-25T15:54:32.466Z,69.47
2022-09-25T15:56:40.383Z,69.54
2022-09-25T15:58:46.083Z,69.41
2022-09-25T16:01:16.437Z,69.24
2022-09-25T16:03:40.594Z,69.39
2022-09-25T16:05:51.724Z,70.07
2022-09-25T16:08:14.898Z,69.77
2022-09-25T16:10:31.763Z,69.81
2022-09-25T16:12:35.998Z,69.57
2022-09-25T16:14:38.711Z,69.44
2022-09-25T16:16:47.341Z,69.53
2022-09-25T16:18:54.300Z,69.21
2022-09-25T16:21:07.705Z,69.47
2022-09-25T16:23:23.834Z,69.50
2022-09-25T16:25:31.789Z,69.76
2022-09-25T16:27:35.416Z,70.01
2022-09-25T16:29:40.692Z,70.07
2022-09-25T16:31:45.258Z,70.44
2022-09-25T16:33:52.527Z,70.36
2022-09-25T16:36:12.883Z,70.40
2022-09-25T16:38:28.189Z,70.95
2022-09-25T16:40:33.791Z,71.03
2022-09-25T16:42:40.385Z,71.22
2022-09-25T16:44:47.006Z,71.37
2022-09-25T16:47:06.341Z,71.30
2022-09-25T16:49:12.118Z,71.14
2022-09-25T16:51:26.755Z,71.38
2022-09-25T16:53:29.704Z,71.48
2022-09-25T16:55:34.113Z,71.79
2022-09-25T16:57:41.250Z,72.11
2022-09-25T16:59:46.364Z,71.84
2022-09-25T17:01:52.642Z,72.42
2022-09-25T17:03:59.777Z,72.50
2022-09-25T17:06:03.803Z,72.41
2022-09-25T17:08:16.251Z,72.21
2022-09-25T17:10:21.051Z,72.09
2022-09-25T17:12:26.545Z,71.99
2022-09-25T17:14:29.625Z,72.15
2022-09-25T17:16:32.311Z,72.29
2022-09-25T17:18:34.967Z,72.41
2022-09-25T17:20:37.812Z,71.90
2022-09-25T17:22:42.968Z,72.14
2022-09-25T17:24:45.639Z,71.71
2022-09-25T17:26:48.556Z,71.43
2022-09-25T17:28:51.752Z,71.22
2022-09-25T17:30:55.299Z,71.34
2022-09-25T17:32:57.932Z,71.26
2022-09-25T17:35:01.784Z,71.52
2022-09-25T17:37:04.343Z,71.52
2022-09-25T17:39:08.320Z,71.53
2022-09-25T17:41:19.508Z,71.69
2022-09-25T17:43:22.163Z,71.80
2022-09-25T17:45:31.853Z,72.15
2022-09-25T17:47:34.410Z,72.04
2022-09-25T17:49:37.428Z,72.19
2022-09-25T17:51:40.875Z,72.37
2022-09-25T17:53:44.324Z,72.61
2022-09-25T17:55:53.365Z,72.36
2022-09-25T17:57:56.380Z,72.29
2022-09-25T17:59:58.926Z,72.52
2022-09-25T18:02:02.001Z,72.15
2022-09-25T18:04:18.200Z,72.34
2022-09-25T18:06:21.536Z,71.26
2022-09-25T18:08:24.157Z,72.28
2022-09-25T18:10:28.832Z,72.55
2022-09-25T18:12:32.689Z,72.81
2022-09-25T18:14:35.258Z,72.46
2022-09-25T18:16:37.826Z,72.63
2022-09-25T18:18:57.932Z,72.99
2022-09-25T18:21:18.154Z,73.50
2022-09-25T18:23:20.725Z,73.81
2022-09-25T18:25:23.290Z,74.00
2022-09-25T18:27:28.856Z,73.48
2022-09-25T18:29:32.772Z,73.28
2022-09-25T18:31:36.611Z,74.14
2022-09-25T18:33:39.250Z,73.77
2022-09-25T18:35:42.828Z,73.50
2022-09-25T18:37:46.033Z,73.46
2022-09-25T18:39:48.619Z,73.21
2022-09-25T18:41:51.419Z,72.95
2022-09-25T18:43:54.006Z,73.39
2022-09-25T18:45:57.971Z,73.22
2022-09-25T18:48:00.562Z,73.16
2022-09-25T18:50:03.304Z,73.33
2022-09-25T18:52:05.924Z,73.54
2022-09-25T18:54:09.803Z,73.04
2022-09-25T18:56:12.619Z,73.07
2022-09-25T18:58:15.172Z,73.36
2022-09-25T19:00:18.147Z,73.06
2022-09-25T19:02:24.191Z,72.97
2022-09-25T19:04:27.316Z,73.03
2022-09-25T19:06:29.878Z,73.59
2022-09-25T19:08:34.138Z,73.64
2022-09-25T19:10:36.668Z,73.50
2022-09-25T19:12:39.294Z,73.73
2022-09-25T19:14:41.929Z,73.49
2022-09-25T19:16:46.161Z,73.28
2022-09-25T19:18:51.182Z,73.65
2022-09-25T19:20:54.767Z,73.83
2022-09-25T19:22:57.504Z,71.73
2022-09-25T19:25:00.323Z,72.82
2022-09-25T19:27:02.904Z,73.26
2022-09-25T19:29:06.175Z,73.03
2022-09-25T19:31:13.424Z,73.47
2022-09-25T19:33:16.066Z,74.06
2022-09-25T19:35:19.983Z,74.15
2022-09-25T19:37:25.307Z,74.08
2022-09-25T19:39:28.285Z,74.10
2022-09-25T19:41:33.298Z,74.36
2022-09-25T19:43:36.046Z,74.34
2022-09-25T19:45:38.583Z,73.65
2022-09-25T19:47:41.121Z,74.74
2022-09-25T19:49:43.654Z,74.81
2022-09-25T19:51:47.557Z,74.98
2022-09-25T19:53:50.296Z,75.10
2022-09-25T19:55:53.742Z,75.19
2022-09-25T19:57:56.545Z,74.82
2022-09-25T20:00:00.409Z,75.24
2022-09-25T20:02:03.616Z,75.11
2022-09-25T20:04:08.477Z,74.88
2022-09-25T20:06:12.678Z,75.01
2022-09-25T20:08:16.848Z,74.92
2022-09-25T20:10:20.794Z,74.91
2022-09-25T20:12:23.351Z,74.60
2022-09-25T20:14:26.282Z,75.07
2022-09-25T20:16:30.280Z,75.06
2022-09-25T20:18:33.368Z,74.58
2022-09-25T20:20:35.941Z,74.77
2022-09-25T20:22:38.578Z,74.96
2022-09-25T20:24:42.839Z,75.14
2022-09-25T20:26:45.568Z,75.02
2022-09-25T20:28:52.955Z,74.29
2022-09-25T20:30:55.931Z,74.44
2022-09-25T20:32:58.553Z,74.74
2022-09-25T20:35:01.328Z,73.78
2022-09-25T20:37:04.636Z,75.14
2022-09-25T20:39:07.388Z,75.41
2022-09-25T20:41:13.127Z,75.15
2022-09-25T20:43:15.710Z,75.56
2022-09-25T20:45:18.409Z,75.48
2022-09-25T20:47:21.631Z,75.50
2022-09-25T20:49:24.432Z,75.50
2022-09-25T20:51:29.307Z,75.66
2022-09-25T20:53:31.878Z,76.15
2022-09-25T20:55:38.611Z,76.40
2022-09-25T20:57:42.536Z,76.34
2022-09-25T20:59:45.167Z,76.20
2022-09-25T21:01:48.341Z,75.44
2022-09-25T21:03:54.320Z,75.24
2022-09-25T21:05:56.921Z,75.15
2022-09-25T21:07:59.465Z,75.38
2022-09-25T21:10:02.045Z,76.35
2022-09-25T21:12:05.785Z,75.95
2022-09-25T21:14:19.433Z,76.14
2022-09-25T21:16:23.405Z,76.15
2022-09-25T21:18:26.220Z,76.53
2022-09-25T21:20:28.794Z,75.33
2022-09-25T21:22:31.328Z,75.10
2022-09-25T21:24:34.396Z,75.23
2022-09-25T21:26:37.027Z,75.71
2022-09-25T21:28:41.154Z,76.39
2022-09-25T21:30:45.089Z,77.00
2022-09-25T21:32:48.083Z,77.52
2022-09-25T21:34:50.664Z,77.49
2022-09-25T21:36:53.247Z,77.59
2022-09-25T21:38:56.120Z,77.97
2022-09-25T21:41:01.744Z,77.61
2022-09-25T21:43:05.949Z,77.87
2022-09-25T21:45:10.332Z,76.06
2022-09-25T21:47:14.223Z,76.77
2022-09-25T21:49:18.670Z,77.56
2022-09-25T21:51:23.214Z,76.20
2022-09-25T21:53:26.864Z,77.19
2022-09-25T21:55:29.419Z,77.59
2022-09-25T21:57:31.985Z,76.90
2022-09-25T21:59:34.754Z,77.86
2022-09-25T22:01:39.993Z,77.70
2022-09-25T22:03:47.346Z,77.21
2022-09-25T22:05:49.929Z,77.87
2022-09-25T22:07:52.458Z,75.56
2022-09-25T22:09:55.007Z,76.58
2022-09-25T22:11:57.537Z,77.86
2022-09-25T22:14:00.698Z,77.41
2022-09-25T22:16:05.240Z,77.50
2022-09-25T22:18:07.773Z,77.92
2022-09-25T22:20:11.828Z,78.44
2022-09-25T22:22:14.389Z,77.17
2022-09-25T22:24:17.641Z,77.98
2022-09-25T22:26:21.408Z,78.08
2022-09-25T22:28:23.929Z,78.45
2022-09-25T22:30:26.811Z,77.45
2022-09-25T22:32:29.648Z,77.19
2022-09-25T22:34:32.342Z,77.98
2022-09-25T22:36:37.503Z,78.33
2022-09-25T22:38:40.831Z,75.92
2022-09-25T22:40:43.615Z,76.33
2022-09-25T22:42:46.231Z,76.82
2022-09-25T22:44:48.768Z,77.54
2022-09-25T22:46:51.395Z,77.61
2022-09-25T22:48:53.965Z,77.85
2022-09-25T22:50:58.295Z,77.68
2022-09-25T22:53:02.253Z,76.89
2022-09-25T22:55:05.265Z,77.27
2022-09-25T22:57:07.813Z,77.87
2022-09-25T22:59:13.666Z,77.92
2022-09-25T23:01:20.087Z,76.64
2022-09-25T23:03:24.762Z,77.78
2022-09-25T23:05:27.465Z,78.04
2022-09-25T23:07:30.081Z,78.21
2022-09-25T23:09:33.980Z,78.40
2022-09-25T23:11:36.585Z,78.52
2022-09-25T23:13:39.109Z,78.19
2022-09-25T23:15:41.668Z,78.46
2022-09-25T23:17:44.219Z,78.31
2022-09-25T23:19:46.771Z,78.40
2022-09-25T23:21:49.685Z,78.12
2022-09-25T23:23:56.201Z,78.48
2022-09-25T23:26:05.950Z,78.83
2022-09-25T23:28:08.515Z,78.88
2022-09-25T23:30:11.694Z,78.79
2022-09-25T23:32:14.268Z,78.26
2022-09-25T23:34:17.053Z,78.51
2022-09-25T23:36:21.537Z,79.15
2022-09-25T23:38:24.244Z,79.78
2022-09-25T23:40:27.245Z,80.04
2022-09-25T23:42:31.378Z,80.00
2022-09-25T23:44:34.118Z,80.08
2022-09-25T23:46:39.805Z,79.89
2022-09-25T23:48:43.183Z,79.56
2022-09-25T23:50:45.746Z,79.69
2022-09-25T23:52:48.300Z,80.04
2022-09-25T23:54:50.866Z,79.64
2022-09-25T23:56:56.608Z,79.72
2022-09-25T23:59:02.095Z,79.80
